Time;durP1;ratioP1;P1;durP2;ratioP2;P2;SDS_P1;SDS_P2;PMS_P1;PMS_P2;Temp;Humidity;BMP_temperature;BMP_pressure;BME280_temperature;BME280_humidity;BME280_pressure;Samples;Min_cycle;Max_cycle;Signal;HPM_P1;HPM_P2
2022/02/10 00:14:35;;;;;;;4.93;1.53;;;;;;;;;;10580898;27;20035;-72
2022/02/10 00:19:48;;;;;;;3.47;1.43;;;;;;;;;;10578913;27;20574;-73
2022/02/10 00:35:38;;;;;;;1.50;0.30;;;;;;;;;;10588546;27;20260;-72
2022/02/10 00:40:42;;;;;;;2.03;1.00;;;;;;;;;;10564451;28;20032;-73
2022/02/10 00:45:47;;;;;;;5.43;1.53;;;;;;;;;;10554287;28;20060;-72
2022/02/10 00:50:51;;;;;;;;;;;;;;;;;;10564092;28;20044;-72
2022/02/10 00:55:54;;;;;;;;;;;;;;;;;;10557899;28;19989;-73
2022/02/10 01:33:06;;;;;;;2.83;1.60;;;;;;;;;;10564669;28;20059;-71
2022/02/10 01:38:09;;;;;;;2.07;1.03;;;;;;;;;;10562856;28;20585;-72
2022/02/10 01:57:44;;;;;;;2.40;1.10;;;;;;;;;;10563129;28;20040;-72
2022/02/10 02:04:48;;;;;;;4.50;1.80;;;;;;;;;;10553058;28;20084;-72
2022/02/10 02:09:51;;;;;;;5.97;1.70;;;;;;;;;;10554306;27;20028;-72
2022/02/10 02:14:54;;;;;;;4.93;1.50;;;;;;;;;;10555025;28;20039;-71
2022/02/10 02:20:00;;;;;;;3.90;1.57;;;;;;;;;;10559832;28;20062;-72
2022/02/10 02:25:14;;;;;;;1.40;1.30;;;;;;;;;;10564776;27;20534;-71
2022/02/10 02:30:22;;;;;;;2.27;1.37;;;;;;;;;;10559655;28;20089;-72
2022/02/10 02:35:38;;;;;;;0.43;0.37;;;;;;;;;;10572223;27;20054;-72
2022/02/10 03:07:44;;;;;;;1.60;0.77;;;;;;;;;;10603007;27;20044;-71
2022/02/10 03:12:48;;;;;;;1.10;0.80;;;;;;;;;;10584101;27;20063;-73
2022/02/10 03:18:08;;;;;;;1.70;0.93;;;;;;;;;;10608913;27;20529;-72
2022/02/10 04:11:41;;;;;;;1.63;0.83;;;;;;;;;;10572574;27;20050;-70
2022/02/10 04:16:53;;;;;;;0.70;0.50;;;;;;;;;;10592314;27;20038;-69
2022/02/10 04:22:02;;;;;;;0.40;0.40;;;;;;;;;;10585664;27;20035;-68
2022/02/10 04:27:11;;;;;;;2.60;0.90;;;;;;;;;;10583252;27;20274;-70
2022/02/10 04:32:36;;;;;;;1.27;0.73;;;;;;;;;;10598831;27;20035;-71
2022/02/10 04:38:27;;;;;;;1.50;0.65;;;;;;;;;;10591467;27;20051;-72
2022/02/10 04:44:00;;;;;;;2.43;1.10;;;;;;;;;;10570963;27;20136;-72
2022/02/10 05:00:03;;;;;;;0.50;0.40;;;;;;;;;;10536165;28;20059;-70
2022/02/10 05:05:53;;;;;;;0.87;0.33;;;;;;;;;;10585763;28;20093;-69
2022/02/10 05:21:54;;;;;;;2.43;1.40;;;;;;;;;;10587288;28;20073;-71
2022/02/10 05:32:38;;;;;;;4.17;1.20;;;;;;;;;;10573751;28;20047;-73
2022/02/10 05:37:48;;;;;;;0.40;0.40;;;;;;;;;;10587303;28;20114;-70
2022/02/10 05:43:21;;;;;;;4.63;1.30;;;;;;;;;;10573382;28;20039;-68
2022/02/10 05:48:44;;;;;;;0.20;0.20;;;;;;;;;;10582935;28;20078;-69
2022/02/10 05:54:03;;;;;;;0.97;0.50;;;;;;;;;;10573397;27;20035;-70
2022/02/10 06:53:08;;;;;;;4.77;1.80;;;;;;;;;;10572454;27;20071;-70
2022/02/10 07:04:20;;;;;;;3.45;1.38;;;;;;;;;;10501054;27;1416495;-71
2022/02/10 07:09:40;;;;;;;6.70;2.50;;;;;;;;;;10504723;28;20037;-69
2022/02/10 07:15:12;;;;;;;7.45;2.58;;;;;;;;;;10522036;22;20394;-76
2022/02/10 07:47:39;;;;;;;3.00;1.05;;;;;;;;;;10516679;28;20145;-73
2022/02/10 07:53:13;;;;;;;4.60;2.50;;;;;;;;;;10521553;28;20047;-75
2022/02/10 08:57:39;;;;;;;19.00;4.35;;;;;;;;;;10496884;28;20044;-75
2022/02/10 09:13:39;;;;;;;6.85;2.22;;;;;;;;;;10465126;28;20048;-76
2022/02/10 10:02:03;;;;;;;4.90;2.42;;;;;;;;;;10474396;28;20051;-79
2022/02/10 10:07:29;;;;;;;5.45;2.20;;;;;;;;;;10471650;28;20055;-77
2022/02/10 10:13:20;;;;;;;4.13;1.90;;;;;;;;;;10484207;28;20600;-78
2022/02/10 10:24:09;;;;;;;5.90;2.53;;;;;;;;;;10473138;28;20047;-77
2022/02/10 10:51:09;;;;;;;5.00;2.20;;;;;;;;;;10489375;28;20036;-76
2022/02/10 10:56:19;;;;;;;4.43;2.10;;;;;;;;;;10478025;28;20033;-76
2022/02/10 11:39:21;;;;;;;4.25;2.00;;;;;;;;;;10511901;28;20040;-76
2022/02/10 11:44:50;;;;;;;9.32;2.15;;;;;;;;;;10519778;28;20226;-75
2022/02/10 13:33:38;;;;;;;1.63;1.42;;;;;;;;;;10525235;28;20477;-76
2022/02/10 14:11:20;;;;;;;4.80;1.67;;;;;;;;;;10496461;28;20081;-74
2022/02/10 14:16:36;;;;;;;5.22;1.73;;;;;;;;;;10490736;28;20076;-78
2022/02/10 14:21:47;;;;;;;4.35;1.45;;;;;;;;;;10499707;28;20434;-78
2022/02/10 14:26:50;;;;;;;4.13;1.80;;;;;;;;;;10517129;28;20028;-74
2022/02/10 14:31:55;;;;;;;5.05;2.30;;;;;;;;;;10525842;28;20195;-76
2022/02/10 14:37:22;;;;;;;2.60;1.48;;;;;;;;;;10519855;28;20048;-74
2022/02/10 16:19:32;;;;;;;7.78;2.42;;;;;;;;;;10490442;28;20052;-77
2022/02/10 16:24:45;;;;;;;9.60;2.85;;;;;;;;;;10509123;28;20553;-75
2022/02/10 16:29:52;;;;;;;7.50;2.50;;;;;;;;;;10504452;28;20453;-75
2022/02/10 16:35:03;;;;;;;4.53;1.77;;;;;;;;;;10495189;28;20040;-71
2022/02/10 16:40:11;;;;;;;5.93;2.63;;;;;;;;;;10483940;28;20044;-75
2022/02/10 16:45:21;;;;;;;8.65;2.92;;;;;;;;;;10488080;28;20048;-75
2022/02/10 16:50:29;;;;;;;7.43;3.10;;;;;;;;;;10501154;28;20102;-77
2022/02/10 16:55:45;;;;;;;4.80;1.85;;;;;;;;;;10487888;28;20682;-77
2022/02/10 17:01:16;;;;;;;6.15;1.73;;;;;;;;;;10482922;28;20026;-74
2022/02/10 17:17:32;;;;;;;9.98;3.00;;;;;;;;;;10496887;28;20034;-78
2022/02/10 17:28:01;;;;;;;6.53;2.53;;;;;;;;;;10514843;28;20044;-76
2022/02/10 17:33:31;;;;;;;6.45;2.90;;;;;;;;;;10518960;28;20072;-73
2022/02/10 17:54:38;;;;;;;7.88;2.55;;;;;;;;;;10470833;28;20453;-75
2022/02/10 17:59:42;;;;;;;2.45;1.63;;;;;;;;;;10505466;28;20037;-75
2022/02/10 18:04:47;;;;;;;3.38;1.92;;;;;;;;;;10498434;28;20048;-77
2022/02/10 18:15:11;;;;;;;9.18;3.67;;;;;;;;;;10509246;28;20044;-76
2022/02/10 18:20:22;;;;;;;4.63;2.38;;;;;;;;;;10509766;28;20052;-76
2022/02/10 19:09:07;;;;;;;13.32;5.63;;;;;;;;;;10490097;28;20562;-77
2022/02/10 19:14:10;;;;;;;17.52;5.38;;;;;;;;;;10511607;28;20490;-76
2022/02/10 19:19:16;;;;;;;14.68;5.35;;;;;;;;;;10504459;28;20526;-75
2022/02/10 19:24:21;;;;;;;10.23;4.78;;;;;;;;;;10489445;28;20514;-77
2022/02/10 19:29:25;;;;;;;15.15;5.28;;;;;;;;;;10505323;28;20113;-76
2022/02/10 19:34:33;;;;;;;12.85;5.55;;;;;;;;;;10487608;28;20129;-75
2022/02/10 19:39:59;;;;;;;13.98;5.05;;;;;;;;;;10487852;28;20056;-76
2022/02/10 19:45:04;;;;;;;14.05;5.13;;;;;;;;;;10517160;22;20025;-72
2022/02/10 19:50:14;;;;;;;13.00;4.75;;;;;;;;;;10395745;28;20227;-69
2022/02/10 19:55:21;;;;;;;15.38;4.50;;;;;;;;;;10394576;28;20041;-71
2022/02/10 20:00:27;;;;;;;12.82;5.18;;;;;;;;;;10359799;28;20042;-71
2022/02/10 20:05:30;;;;;;;15.52;5.95;;;;;;;;;;10368718;28;20073;-72
2022/02/10 20:10:37;;;;;;;12.32;5.07;;;;;;;;;;10357109;28;20097;-72
2022/02/10 20:15:40;;;;;;;15.63;5.45;;;;;;;;;;10357018;28;20042;-72
2022/02/10 20:20:45;;;;;;;12.80;5.32;;;;;;;;;;10358436;28;20126;-69
2022/02/10 20:25:51;;;;;;;13.18;5.70;;;;;;;;;;10356806;28;20443;-69
2022/02/10 20:30:54;;;;;;;12.57;5.28;;;;;;;;;;10341198;28;20108;-69
2022/02/10 20:36:01;;;;;;;14.43;5.55;;;;;;;;;;10342074;28;20125;-70
2022/02/10 20:41:07;;;;;;;13.98;6.47;;;;;;;;;;10349027;28;20041;-70
2022/02/10 20:46:14;;;;;;;19.73;5.80;;;;;;;;;;10352169;28;20080;-73
2022/02/10 20:51:17;;;;;;;17.42;5.72;;;;;;;;;;10354326;28;20035;-69
2022/02/10 20:56:22;;;;;;;14.98;5.78;;;;;;;;;;10355840;28;20759;-70
2022/02/10 21:01:27;;;;;;;14.75;5.85;;;;;;;;;;10352227;28;20401;-72
2022/02/10 21:06:47;;;;;;;12.87;6.03;;;;;;;;;;10352518;28;20041;-70
2022/02/10 21:11:55;;;;;;;13.40;5.72;;;;;;;;;;10359375;28;20748;-69
2022/02/10 21:17:05;;;;;;;16.70;6.50;;;;;;;;;;10360754;28;20038;-72
2022/02/10 21:22:15;;;;;;;13.05;5.05;;;;;;;;;;10362377;28;20077;-71
2022/02/10 21:27:30;;;;;;;16.60;6.10;;;;;;;;;;10359466;28;20124;-71
2022/02/10 21:32:39;;;;;;;19.70;6.50;;;;;;;;;;10360682;28;20033;-72
2022/02/10 21:37:48;;;;;;;12.53;6.47;;;;;;;;;;10366776;28;20528;-70
2022/02/10 21:48:24;;;;;;;17.53;6.87;;;;;;;;;;10358276;28;20508;-70
2022/02/10 22:09:48;;;;;;;16.70;6.43;;;;;;;;;;10359218;28;20038;-70
2022/02/10 22:20:18;;;;;;;20.23;6.70;;;;;;;;;;10361017;28;20355;-71
2022/02/10 22:25:21;;;;;;;8.25;4.47;;;;;;;;;;10364177;28;20136;-69
2022/02/10 22:30:38;;;;;;;15.35;6.20;;;;;;;;;;10358301;28;20530;-70
2022/02/10 22:35:41;;;;;;;20.15;6.78;;;;;;;;;;10359612;28;20042;-72
2022/02/10 22:40:59;;;;;;;15.90;5.70;;;;;;;;;;10362666;28;20042;-69
2022/02/10 22:46:04;;;;;;;17.20;5.40;;;;;;;;;;10362074;28;20064;-70
2022/02/10 22:51:08;;;;;;;12.38;4.90;;;;;;;;;;10368006;28;20370;-70
2022/02/10 22:56:12;;;;;;;13.15;5.97;;;;;;;;;;10362801;28;20544;-70
2022/02/10 23:01:17;;;;;;;13.65;5.03;;;;;;;;;;10358305;28;20156;-71
2022/02/10 23:06:20;;;;;;;4.25;1.90;;;;;;;;;;10357463;28;20074;-70
2022/02/10 23:11:28;;;;;;;12.27;4.23;;;;;;;;;;10362226;28;20034;-69
2022/02/10 23:16:33;;;;;;;14.38;4.68;;;;;;;;;;10347624;28;20434;-71
2022/02/10 23:21:36;;;;;;;15.52;4.97;;;;;;;;;;10349076;28;20482;-70
2022/02/10 23:26:39;;;;;;;14.15;5.30;;;;;;;;;;10347805;28;20076;-70
2022/02/10 23:31:43;;;;;;;10.50;4.63;;;;;;;;;;10363652;28;20049;-70
2022/02/10 23:36:50;;;;;;;11.63;4.93;;;;;;;;;;10345603;28;20077;-69
2022/02/10 23:42:02;;;;;;;14.40;4.90;;;;;;;;;;10353768;28;20426;-71
2022/02/10 23:47:11;;;;;;;4.88;2.83;;;;;;;;;;10347519;28;20044;-70
2022/02/10 23:52:16;;;;;;;10.40;4.57;;;;;;;;;;10355787;28;20121;-70
2022/02/10 23:57:27;;;;;;;;;;;;;;;;;;10354252;28;20110;-71
